createdAt,value
2023-05-22T00:00:26.847Z,100.00
2023-05-22T00:02:55.362Z,100.00
2023-05-22T00:05:23.699Z,100.00
2023-05-22T00:07:52.495Z,100.00
2023-05-22T00:10:21.194Z,100.00
2023-05-22T00:12:49.489Z,100.00
2023-05-22T00:15:19.441Z,100.00
2023-05-22T00:17:47.895Z,100.00
2023-05-22T00:20:16.053Z,100.00
2023-05-22T00:22:45.132Z,100.00
2023-05-22T00:25:13.668Z,100.00
2023-05-22T00:27:41.801Z,100.00
2023-05-22T00:30:11.251Z,100.00
2023-05-22T00:32:41.355Z,100.00
2023-05-22T00:35:11.024Z,100.00
2023-05-22T00:37:39.328Z,100.00
2023-05-22T00:40:09.280Z,100.00
2023-05-22T00:42:37.424Z,100.00
2023-05-22T00:45:06.741Z,100.00
2023-05-22T00:47:34.885Z,100.00
2023-05-22T00:50:05.793Z,100.00
2023-05-22T00:52:35.008Z,100.00
2023-05-22T00:55:04.137Z,100.00
2023-05-22T00:57:35.763Z,100.00
2023-05-22T01:00:06.174Z,100.00
2023-05-22T01:02:34.926Z,100.00
2023-05-22T01:05:06.182Z,100.00
2023-05-22T01:07:37.878Z,100.00
2023-05-22T01:10:07.573Z,100.00
2023-05-22T01:12:44.038Z,100.00
2023-05-22T01:15:23.356Z,100.00
2023-05-22T01:18:05.874Z,100.00
2023-05-22T01:20:40.385Z,100.00
2023-05-22T01:23:35.128Z,100.00
2023-05-22T01:26:24.012Z,100.00
2023-05-22T01:29:28.019Z,100.00
2023-05-22T01:32:00.711Z,100.00
2023-05-22T01:34:31.361Z,100.00
2023-05-22T01:37:00.870Z,100.00
2023-05-22T01:39:30.151Z,100.00
2023-05-22T01:41:58.898Z,100.00
2023-05-22T01:44:27.068Z,100.00
2023-05-22T01:46:55.340Z,100.00
2023-05-22T01:49:25.279Z,100.00
2023-05-22T01:51:55.578Z,100.00
2023-05-22T01:54:32.330Z,100.00
2023-05-22T01:57:08.861Z,100.00
2023-05-22T01:59:45.607Z,100.00
2023-05-22T02:02:17.203Z,100.00
2023-05-22T02:04:53.981Z,100.00
2023-05-22T02:07:26.442Z,100.00
2023-05-22T02:09:57.778Z,100.00
2023-05-22T02:12:26.746Z,100.00
2023-05-22T02:14:55.394Z,100.00
2023-05-22T02:17:24.683Z,100.00
2023-05-22T02:19:54.448Z,100.00
2023-05-22T02:22:22.858Z,100.00
2023-05-22T02:24:51.708Z,100.00
2023-05-22T02:27:20.343Z,100.00
2023-05-22T02:29:48.574Z,100.00
2023-05-22T02:32:17.041Z,100.00
2023-05-22T02:34:45.738Z,100.00
2023-05-22T02:37:16.194Z,100.00
2023-05-22T02:39:45.661Z,100.00
2023-05-22T02:42:13.771Z,100.00
2023-05-22T02:44:41.950Z,100.00
2023-05-22T02:47:10.207Z,100.00
2023-05-22T02:49:38.663Z,100.00
2023-05-22T02:52:07.092Z,100.00
2023-05-22T02:54:37.160Z,100.00
2023-05-22T02:57:05.996Z,100.00
2023-05-22T02:59:36.081Z,100.00
2023-05-22T03:02:05.010Z,100.00
2023-05-22T03:04:33.308Z,100.00
2023-05-22T03:07:02.240Z,100.00
2023-05-22T03:09:30.381Z,100.00
2023-05-22T03:12:00.167Z,100.00
2023-05-22T03:14:30.704Z,100.00
2023-05-22T03:16:59.173Z,100.00
2023-05-22T03:19:27.707Z,100.00
2023-05-22T03:21:55.983Z,100.00
2023-05-22T03:24:24.327Z,100.00
2023-05-22T03:26:52.655Z,100.00
2023-05-22T03:29:22.829Z,100.00
2023-05-22T03:31:51.299Z,100.00
2023-05-22T03:34:19.662Z,100.00
2023-05-22T03:36:47.829Z,100.00
2023-05-22T03:39:16.305Z,100.00
2023-05-22T03:41:44.464Z,100.00
2023-05-22T03:44:12.585Z,100.00
2023-05-22T03:46:42.556Z,100.00
2023-05-22T03:49:10.665Z,100.00
2023-05-22T03:51:38.886Z,100.00
2023-05-22T03:54:07.484Z,100.00
2023-05-22T03:56:36.271Z,100.00
2023-05-22T03:59:06.032Z,100.00
2023-05-22T04:01:34.426Z,100.00
2023-05-22T04:04:05.632Z,100.00
2023-05-22T04:06:34.511Z,100.00
2023-05-22T04:09:02.765Z,100.00
2023-05-22T04:11:32.261Z,100.00
2023-05-22T04:14:04.894Z,100.00
2023-05-22T04:16:33.377Z,100.00
2023-05-22T04:19:03.609Z,100.00
2023-05-22T04:21:34.602Z,100.00
2023-05-22T04:24:07.434Z,100.00
2023-05-22T04:26:36.300Z,100.00
2023-05-22T04:29:06.662Z,100.00
2023-05-22T04:31:35.256Z,100.00
2023-05-22T04:34:04.096Z,100.00
2023-05-22T04:36:33.850Z,100.00
2023-05-22T04:39:02.712Z,100.00
2023-05-22T04:41:31.041Z,100.00
2023-05-22T04:44:00.701Z,100.00
2023-05-22T04:46:29.191Z,100.00
2023-05-22T04:48:58.538Z,100.00
2023-05-22T04:51:28.263Z,100.00
2023-05-22T04:53:58.604Z,100.00
2023-05-22T04:56:36.018Z,100.00
2023-05-22T04:59:09.470Z,100.00
2023-05-22T05:01:38.294Z,100.00
2023-05-22T05:04:06.742Z,100.00
2023-05-22T05:06:36.054Z,100.00
2023-05-22T05:09:05.812Z,100.00
2023-05-22T05:11:34.001Z,100.00
2023-05-22T05:14:02.080Z,100.00
2023-05-22T05:16:30.401Z,100.00
2023-05-22T05:18:58.901Z,100.00
2023-05-22T05:21:28.206Z,100.00
2023-05-22T05:23:56.352Z,100.00
2023-05-22T05:26:27.400Z,100.00
2023-05-22T05:28:56.975Z,100.00
2023-05-22T05:31:25.488Z,100.00
2023-05-22T05:33:56.786Z,100.00
2023-05-22T05:36:25.644Z,100.00
2023-05-22T05:38:54.428Z,100.00
2023-05-22T05:41:23.273Z,100.00
2023-05-22T05:43:53.064Z,100.00
2023-05-22T05:46:21.445Z,100.00
2023-05-22T05:48:49.711Z,100.00
2023-05-22T05:51:17.829Z,100.00
2023-05-22T05:53:46.586Z,100.00
2023-05-22T05:56:15.151Z,100.00
2023-05-22T05:58:43.310Z,100.00
2023-05-22T06:01:13.334Z,100.00
2023-05-22T06:03:41.889Z,100.00
2023-05-22T06:06:12.731Z,100.00
2023-05-22T06:08:42.519Z,100.00
2023-05-22T06:11:10.708Z,100.00
2023-05-22T06:13:39.109Z,100.00
2023-05-22T06:16:07.726Z,100.00
2023-05-22T06:18:37.315Z,100.00
2023-05-22T06:21:06.105Z,100.00
2023-05-22T06:23:34.346Z,100.00
2023-05-22T06:26:02.964Z,100.00
2023-05-22T06:28:31.775Z,100.00
2023-05-22T06:30:59.904Z,100.00
2023-05-22T06:33:28.111Z,100.00
2023-05-22T06:35:58.890Z,100.00
2023-05-22T06:38:26.944Z,100.00
2023-05-22T06:40:55.383Z,100.00
2023-05-22T06:43:23.713Z,100.00
2023-05-22T06:45:52.836Z,100.00
2023-05-22T06:48:21.481Z,100.00
2023-05-22T06:50:49.993Z,100.00
2023-05-22T06:53:19.566Z,100.00
2023-05-22T06:55:48.136Z,100.00
2023-05-22T06:58:16.737Z,100.00
2023-05-22T07:00:45.300Z,100.00
2023-05-22T07:03:13.955Z,100.00
2023-05-22T07:05:42.461Z,100.00
2023-05-22T07:08:10.933Z,100.00
2023-05-22T07:10:42.441Z,100.00
2023-05-22T07:13:11.435Z,100.00
2023-05-22T07:15:39.534Z,100.00
2023-05-22T07:18:09.619Z,100.00
2023-05-22T07:20:39.204Z,100.00
2023-05-22T07:23:07.820Z,100.00
2023-05-22T07:25:36.249Z,100.00
2023-05-22T07:28:09.287Z,100.00
2023-05-22T07:30:39.217Z,100.00
2023-05-22T07:33:07.956Z,100.00
2023-05-22T07:35:36.599Z,100.00
2023-05-22T07:38:05.373Z,100.00
2023-05-22T07:40:33.841Z,100.00
2023-05-22T07:43:02.359Z,100.00
2023-05-22T07:45:32.732Z,100.00
2023-05-22T07:48:02.233Z,100.00
2023-05-22T07:50:31.050Z,100.00
2023-05-22T07:52:59.278Z,100.00
2023-05-22T07:55:27.672Z,100.00
2023-05-22T07:57:56.426Z,100.00
2023-05-22T08:00:25.583Z,100.00
2023-05-22T08:02:55.620Z,100.00
2023-05-22T08:05:24.160Z,100.00
2023-05-22T08:07:52.623Z,100.00
2023-05-22T08:10:21.046Z,100.00
2023-05-22T08:12:49.683Z,100.00
2023-05-22T08:15:18.204Z,100.00
2023-05-22T08:17:46.576Z,100.00
2023-05-22T08:20:16.490Z,100.00
2023-05-22T08:22:44.864Z,95.85
2023-05-22T08:25:16.225Z,100.00
2023-05-22T08:27:44.597Z,94.82
2023-05-22T08:30:13.264Z,89.01
2023-05-22T08:32:41.749Z,88.36
2023-05-22T08:35:10.991Z,85.69
2023-05-22T08:37:40.815Z,83.01
2023-05-22T08:40:12.760Z,79.95
2023-05-22T08:42:41.499Z,78.74
2023-05-22T08:45:10.314Z,79.26
2023-05-22T08:47:39.311Z,82.49
2023-05-22T08:50:09.390Z,81.81
2023-05-22T08:52:48.134Z,80.93
2023-05-22T08:55:16.720Z,82.22
2023-05-22T08:57:45.966Z,82.33
2023-05-22T09:00:15.745Z,82.14
2023-05-22T09:02:44.126Z,85.55
2023-05-22T09:05:14.029Z,86.67
2023-05-22T09:07:44.166Z,82.20
2023-05-22T09:10:12.925Z,81.48
2023-05-22T09:13:01.601Z,85.08
2023-05-22T09:15:32.239Z,85.69
2023-05-22T09:18:00.842Z,84.90
2023-05-22T09:20:29.204Z,84.06
2023-05-22T09:22:59.037Z,84.74
2023-05-22T09:25:28.758Z,83.44
2023-05-22T09:27:56.974Z,81.59
2023-05-22T09:30:25.315Z,82.19
2023-05-22T09:32:54.672Z,82.29
2023-05-22T09:35:27.964Z,75.82
2023-05-22T09:37:58.923Z,74.22
2023-05-22T09:40:29.033Z,74.45
2023-05-22T09:42:57.228Z,80.40
2023-05-22T09:45:26.651Z,82.49
2023-05-22T09:47:55.001Z,82.93
2023-05-22T09:50:23.379Z,75.21
2023-05-22T09:52:53.403Z,74.94
2023-05-22T09:55:24.809Z,75.74
2023-05-22T09:57:53.891Z,77.42
2023-05-22T10:00:24.274Z,73.92
2023-05-22T10:02:55.740Z,72.77
2023-05-22T10:05:26.213Z,70.29
2023-05-22T10:07:58.606Z,69.58
2023-05-22T10:10:28.423Z,66.54
2023-05-22T10:13:04.657Z,69.25
2023-05-22T10:15:33.171Z,63.07
2023-05-22T10:18:01.829Z,63.34
2023-05-22T10:20:31.087Z,61.95
2023-05-22T10:23:00.763Z,62.30
2023-05-22T10:25:30.740Z,59.13
2023-05-22T10:28:00.858Z,54.94
2023-05-22T10:30:35.551Z,56.90
2023-05-22T10:33:09.666Z,57.76
2023-05-22T10:35:51.493Z,59.23
2023-05-22T10:38:33.051Z,62.71
2023-05-22T10:41:04.791Z,65.54
2023-05-22T10:43:33.236Z,57.17
2023-05-22T10:46:04.859Z,52.51
2023-05-22T10:48:39.678Z,52.70
2023-05-22T10:51:08.908Z,58.24
2023-05-22T10:53:37.669Z,56.40
2023-05-22T10:56:25.355Z,55.22
2023-05-22T10:58:59.407Z,52.43
2023-05-22T11:01:28.026Z,53.97
2023-05-22T11:03:58.377Z,53.15
2023-05-22T11:06:41.228Z,55.39
2023-05-22T11:09:20.366Z,50.53
2023-05-22T11:12:31.388Z,49.19
2023-05-22T11:15:01.188Z,48.49
2023-05-22T11:17:31.275Z,47.83
2023-05-22T11:20:02.734Z,47.28
2023-05-22T11:22:36.132Z,47.66
2023-05-22T11:25:11.052Z,45.65
2023-05-22T11:27:43.596Z,45.86
2023-05-22T11:30:13.292Z,45.73
2023-05-22T11:32:45.024Z,45.40
2023-05-22T11:35:17.634Z,45.00
2023-05-22T11:37:46.068Z,46.26
2023-05-22T11:40:17.204Z,48.04
2023-05-22T11:42:47.006Z,46.98
2023-05-22T11:45:15.371Z,46.72
2023-05-22T11:47:44.889Z,47.92
2023-05-22T11:50:15.137Z,46.11
2023-05-22T11:52:46.885Z,46.40
2023-05-22T11:55:15.299Z,48.55
2023-05-22T11:57:43.445Z,52.38
2023-05-22T12:00:15.446Z,52.34
2023-05-22T12:02:47.965Z,56.37
2023-05-22T12:05:17.034Z,55.64
2023-05-22T12:07:45.499Z,53.08
2023-05-22T12:10:15.780Z,51.12
2023-05-22T12:12:45.328Z,49.95
2023-05-22T12:15:16.209Z,48.40
2023-05-22T12:17:44.679Z,47.52
2023-05-22T12:20:14.834Z,48.01
2023-05-22T12:22:44.872Z,50.16
2023-05-22T12:25:18.043Z,44.09
2023-05-22T12:27:46.788Z,42.48
2023-05-22T12:30:17.805Z,42.47
2023-05-22T12:32:50.225Z,40.26
2023-05-22T12:35:20.866Z,39.77
2023-05-22T12:37:53.539Z,40.03
2023-05-22T12:40:21.862Z,40.62
2023-05-22T12:42:50.259Z,40.38
2023-05-22T12:45:20.359Z,41.69
2023-05-22T12:47:48.653Z,39.57
2023-05-22T12:50:16.882Z,40.56
2023-05-22T12:52:45.178Z,39.80
2023-05-22T12:55:13.682Z,39.28
2023-05-22T12:57:41.956Z,39.70
2023-05-22T13:00:11.770Z,39.06
2023-05-22T13:02:41.908Z,38.83
2023-05-22T13:05:10.385Z,37.71
2023-05-22T13:07:39.243Z,39.31
2023-05-22T13:10:09.946Z,39.65
2023-05-22T13:12:39.734Z,40.55
2023-05-22T13:15:09.683Z,40.66
2023-05-22T13:17:38.069Z,40.09
2023-05-22T13:20:10.227Z,40.19
2023-05-22T13:22:38.849Z,39.40
2023-05-22T13:25:08.056Z,40.04
2023-05-22T13:27:36.911Z,39.27
2023-05-22T13:30:06.597Z,41.75
2023-05-22T13:32:35.461Z,45.71
2023-05-22T13:35:03.718Z,46.20
2023-05-22T13:37:33.721Z,48.52
2023-05-22T13:40:01.956Z,45.48
2023-05-22T13:42:30.511Z,45.84
2023-05-22T13:44:58.961Z,45.07
2023-05-22T13:47:27.442Z,44.12
2023-05-22T13:49:55.934Z,46.20
2023-05-22T13:52:24.529Z,47.29
2023-05-22T13:54:54.563Z,48.75
2023-05-22T13:57:22.873Z,48.83
2023-05-22T13:59:51.334Z,47.00
2023-05-22T14:02:21.008Z,47.34
2023-05-22T14:04:49.910Z,53.78
2023-05-22T14:07:18.121Z,53.22
2023-05-22T14:09:46.282Z,53.56
2023-05-22T14:12:15.899Z,54.14
2023-05-22T14:14:44.016Z,57.39
2023-05-22T14:17:12.422Z,57.56
2023-05-22T14:19:40.976Z,59.69
2023-05-22T14:22:09.713Z,54.79
2023-05-22T14:24:37.906Z,52.30
2023-05-22T14:27:07.026Z,51.55
2023-05-22T14:29:36.613Z,53.39
2023-05-22T14:32:06.281Z,51.32
2023-05-22T14:34:34.461Z,48.32
2023-05-22T14:37:02.903Z,49.99
2023-05-22T14:39:31.164Z,46.64
2023-05-22T14:41:59.532Z,45.13
2023-05-22T14:44:27.780Z,46.30
2023-05-22T14:46:58.107Z,42.95
2023-05-22T14:49:26.289Z,43.45
2023-05-22T14:51:54.891Z,43.47
2023-05-22T14:54:24.142Z,40.71
2023-05-22T14:56:52.835Z,45.58
2023-05-22T14:59:21.597Z,48.47
2023-05-22T15:01:50.697Z,49.80
2023-05-22T15:04:20.774Z,50.70
2023-05-22T15:06:49.322Z,53.46
2023-05-22T15:09:20.376Z,55.95
2023-05-22T15:11:51.195Z,58.27
2023-05-22T15:14:20.155Z,61.70
2023-05-22T15:16:49.012Z,66.08
2023-05-22T15:19:17.522Z,70.77
2023-05-22T15:21:47.319Z,77.34
2023-05-22T15:24:15.712Z,77.68
2023-05-22T15:26:44.250Z,78.95
2023-05-22T15:29:13.838Z,82.75
2023-05-22T15:31:41.957Z,82.50
2023-05-22T15:34:10.203Z,84.35
2023-05-22T15:36:38.253Z,86.25
2023-05-22T15:39:08.135Z,91.38
2023-05-22T15:41:37.775Z,91.35
2023-05-22T15:44:06.340Z,91.04
2023-05-22T15:46:34.840Z,94.25
2023-05-22T15:49:03.329Z,95.71
2023-05-22T15:51:32.892Z,97.89
2023-05-22T15:54:01.107Z,98.45
2023-05-22T15:56:30.957Z,99.78
2023-05-22T15:58:59.125Z,98.58
2023-05-22T16:01:29.630Z,95.83
2023-05-22T16:03:58.140Z,97.16
2023-05-22T16:06:27.626Z,100.00
2023-05-22T16:08:55.820Z,100.00
2023-05-22T16:11:24.046Z,100.00
2023-05-22T16:13:54.013Z,99.29
2023-05-22T16:16:22.601Z,97.87
2023-05-22T16:18:51.073Z,98.30
2023-05-22T16:21:19.668Z,98.55
2023-05-22T16:23:48.266Z,98.67
2023-05-22T16:26:17.066Z,96.54
2023-05-22T16:28:45.390Z,98.18
2023-05-22T16:31:18.352Z,100.00
2023-05-22T16:33:47.467Z,100.00
2023-05-22T16:36:15.885Z,99.95
2023-05-22T16:38:44.066Z,99.36
2023-05-22T16:41:12.520Z,100.00
2023-05-22T16:43:40.740Z,99.24
2023-05-22T16:46:11.639Z,100.00
2023-05-22T16:48:41.587Z,100.00
2023-05-22T16:51:10.677Z,100.00
2023-05-22T16:53:39.010Z,100.00
2023-05-22T16:56:07.773Z,100.00
2023-05-22T16:58:36.135Z,96.42
2023-05-22T17:01:06.480Z,92.80
2023-05-22T17:03:35.099Z,87.99
2023-05-22T17:06:05.433Z,89.68
2023-05-22T17:08:33.744Z,91.63
2023-05-22T17:11:01.854Z,91.72
2023-05-22T17:13:30.455Z,90.67
2023-05-22T17:15:59.103Z,89.11
2023-05-22T17:18:28.136Z,87.40
2023-05-22T17:20:56.372Z,90.14
2023-05-22T17:23:26.358Z,88.36
2023-05-22T17:25:55.397Z,83.76
2023-05-22T17:28:23.658Z,83.99
2023-05-22T17:30:51.759Z,81.13
2023-05-22T17:33:20.244Z,85.84
2023-05-22T17:35:48.499Z,83.58
2023-05-22T17:38:17.032Z,87.71
2023-05-22T17:40:47.242Z,88.09
2023-05-22T17:43:16.791Z,87.98
2023-05-22T17:45:49.911Z,87.46
2023-05-22T17:48:23.623Z,87.99
2023-05-22T17:50:52.330Z,88.12
2023-05-22T17:53:22.120Z,87.60
2023-05-22T17:55:52.629Z,87.08
2023-05-22T17:58:22.040Z,88.16
2023-05-22T18:00:50.504Z,86.78
2023-05-22T18:03:20.583Z,89.26
2023-05-22T18:05:51.147Z,91.81
2023-05-22T18:08:21.586Z,95.07
2023-05-22T18:10:52.469Z,95.38
2023-05-22T18:13:21.938Z,100.00
2023-05-22T18:15:51.916Z,100.00
2023-05-22T18:18:20.998Z,100.00
2023-05-22T18:20:49.853Z,100.00
2023-05-22T18:23:18.211Z,100.00
2023-05-22T18:25:46.354Z,100.00
2023-05-22T18:28:16.452Z,100.00
2023-05-22T18:30:45.944Z,100.00
2023-05-22T18:33:14.304Z,100.00
2023-05-22T18:35:43.282Z,100.00
2023-05-22T18:38:11.734Z,100.00
2023-05-22T18:40:40.673Z,100.00
2023-05-22T18:43:08.972Z,100.00
2023-05-22T18:45:38.880Z,100.00
2023-05-22T18:48:07.306Z,100.00
2023-05-22T18:50:35.988Z,100.00
2023-05-22T18:53:04.103Z,100.00
2023-05-22T18:55:32.570Z,100.00
2023-05-22T18:58:01.977Z,100.00
2023-05-22T19:00:31.991Z,100.00
2023-05-22T19:03:02.210Z,100.00
2023-05-22T19:05:30.808Z,100.00
2023-05-22T19:07:59.395Z,100.00
2023-05-22T19:10:27.624Z,100.00
2023-05-22T19:12:56.411Z,100.00
2023-05-22T19:15:25.822Z,100.00
2023-05-22T19:17:54.116Z,100.00
2023-05-22T19:20:24.179Z,100.00
2023-05-22T19:22:55.130Z,100.00
2023-05-22T19:25:23.574Z,100.00
2023-05-22T19:27:51.759Z,100.00
2023-05-22T19:30:21.978Z,100.00
2023-05-22T19:32:51.288Z,100.00
2023-05-22T19:35:22.726Z,100.00
2023-05-22T19:37:52.358Z,100.00
2023-05-22T19:40:20.891Z,100.00
2023-05-22T19:42:49.062Z,100.00
2023-05-22T19:45:17.720Z,100.00
2023-05-22T19:47:46.380Z,100.00
2023-05-22T19:50:14.617Z,100.00
2023-05-22T19:52:44.969Z,100.00
2023-05-22T19:55:14.601Z,100.00
2023-05-22T19:57:44.650Z,100.00
2023-05-22T20:00:14.300Z,100.00
2023-05-22T20:02:42.786Z,100.00
2023-05-22T20:05:13.313Z,100.00
2023-05-22T20:07:43.172Z,100.00
2023-05-22T20:10:12.912Z,100.00
2023-05-22T20:12:42.527Z,100.00
2023-05-22T20:15:15.251Z,100.00
2023-05-22T20:17:47.806Z,100.00
2023-05-22T20:20:16.432Z,100.00
2023-05-22T20:22:44.609Z,100.00
2023-05-22T20:25:12.772Z,100.00
2023-05-22T20:27:43.643Z,100.00
2023-05-22T20:30:14.111Z,100.00
2023-05-22T20:32:42.825Z,100.00
2023-05-22T20:35:13.238Z,100.00
2023-05-22T20:37:42.329Z,100.00
2023-05-22T20:40:12.177Z,100.00
2023-05-22T20:42:41.252Z,100.00
2023-05-22T20:45:14.789Z,100.00
2023-05-22T20:47:44.490Z,100.00
2023-05-22T20:50:13.177Z,100.00
2023-05-22T20:52:43.015Z,100.00
2023-05-22T20:55:11.661Z,100.00
2023-05-22T20:57:40.144Z,100.00
2023-05-22T21:00:14.157Z,100.00
2023-05-22T21:02:48.156Z,100.00
2023-05-22T21:05:16.560Z,100.00
2023-05-22T21:07:45.034Z,100.00
2023-05-22T21:10:13.541Z,100.00
2023-05-22T21:12:41.886Z,100.00
2023-05-22T21:15:11.499Z,100.00
2023-05-22T21:17:40.717Z,100.00
2023-05-22T21:20:11.762Z,100.00
2023-05-22T21:22:40.268Z,100.00
2023-05-22T21:25:10.489Z,100.00
2023-05-22T21:27:38.663Z,100.00
2023-05-22T21:30:07.907Z,100.00
2023-05-22T21:32:36.319Z,100.00
2023-05-22T21:35:04.811Z,100.00
2023-05-22T21:37:34.447Z,100.00
2023-05-22T21:40:03.088Z,100.00
2023-05-22T21:42:41.873Z,100.00
2023-05-22T21:45:14.493Z,100.00
2023-05-22T21:47:42.825Z,100.00
2023-05-22T21:50:12.134Z,100.00
2023-05-22T21:52:41.989Z,100.00
2023-05-22T21:55:10.990Z,100.00
2023-05-22T21:57:39.940Z,100.00
2023-05-22T22:00:09.151Z,100.00
2023-05-22T22:02:37.446Z,100.00
2023-05-22T22:05:06.559Z,100.00
2023-05-22T22:07:34.767Z,100.00
2023-05-22T22:10:05.126Z,100.00
2023-05-22T22:12:33.540Z,100.00
2023-05-22T22:15:02.501Z,100.00
2023-05-22T22:17:31.177Z,100.00
2023-05-22T22:19:59.260Z,100.00
2023-05-22T22:22:27.535Z,100.00
2023-05-22T22:24:56.195Z,100.00
2023-05-22T22:27:25.813Z,100.00
2023-05-22T22:29:55.258Z,100.00
2023-05-22T22:32:23.438Z,100.00
2023-05-22T22:34:54.168Z,100.00
2023-05-22T22:37:24.784Z,100.00
2023-05-22T22:39:52.917Z,100.00
2023-05-22T22:42:21.083Z,100.00
2023-05-22T22:44:50.700Z,100.00
2023-05-22T22:47:19.205Z,100.00
2023-05-22T22:49:47.652Z,100.00
2023-05-22T22:52:16.175Z,100.00
2023-05-22T22:54:44.802Z,100.00
2023-05-22T22:57:13.627Z,100.00
2023-05-22T22:59:41.924Z,100.00
2023-05-22T23:02:11.628Z,100.00
2023-05-22T23:04:41.420Z,100.00
2023-05-22T23:07:11.900Z,100.00
2023-05-22T23:09:41.572Z,100.00
2023-05-22T23:12:10.020Z,100.00
2023-05-22T23:14:40.621Z,100.00
2023-05-22T23:17:08.685Z,100.00
2023-05-22T23:19:38.146Z,100.00
2023-05-22T23:22:06.668Z,100.00
2023-05-22T23:24:34.820Z,100.00
2023-05-22T23:27:03.235Z,100.00
2023-05-22T23:29:31.421Z,100.00
2023-05-22T23:31:59.872Z,100.00
2023-05-22T23:34:27.964Z,100.00
2023-05-22T23:36:57.902Z,100.00
2023-05-22T23:39:26.972Z,100.00
2023-05-22T23:41:55.379Z,100.00
2023-05-22T23:44:23.713Z,100.00
2023-05-22T23:46:51.918Z,100.00
2023-05-22T23:49:20.210Z,100.00
2023-05-22T23:51:48.410Z,100.00
2023-05-22T23:54:18.111Z,100.00
2023-05-22T23:56:46.713Z,100.00
2023-05-22T23:59:15.450Z,100.00
